Time;durP1;ratioP1;P1;durP2;ratioP2;P2;SDS_P1;SDS_P2;PMS_P1;PMS_P2;Temp;Humidity;BMP_temperature;BMP_pressure;BME280_temperature;BME280_humidity;BME280_pressure;Samples;Min_cycle;Max_cycle;Signal;HPM_P1;HPM_P2
2021/08/17 00:01:11;;;;;;;13.47;10.37;;;26.80;99.90;;;;;;5115684;28;20192;-64
2021/08/17 00:03:36;;;;;;;14.73;10.80;;;26.80;99.90;;;;;;5116148;28;20673;-64
2021/08/17 00:06:04;;;;;;;10.27;9.13;;;26.80;99.90;;;;;;5115474;28;20274;-63
2021/08/17 00:08:30;;;;;;;10.47;9.43;;;26.70;99.90;;;;;;5116130;28;20167;-63
2021/08/17 00:10:57;;;;;;;9.07;8.00;;;26.80;99.90;;;;;;5115504;28;20528;-64
2021/08/17 00:13:22;;;;;;;17.27;8.60;;;26.80;99.90;;;;;;5116170;28;20423;-63
2021/08/17 00:15:48;;;;;;;16.50;7.57;;;26.90;99.90;;;;;;5148480;27;20984;-63
2021/08/17 00:18:15;;;;;;;22.07;7.50;;;26.90;99.70;;;;;;5115828;28;20534;-63
2021/08/17 00:20:41;;;;;;;16.37;5.80;;;27.00;99.70;;;;;;5115348;28;20428;-63
2021/08/17 00:23:07;;;;;;;10.93;5.60;;;27.00;99.50;;;;;;5115310;28;20460;-63
2021/08/17 00:25:34;;;;;;;9.43;4.50;;;26.90;99.40;;;;;;5115225;28;20420;-63
2021/08/17 00:28:00;;;;;;;14.13;4.87;;;26.90;99.50;;;;;;5115641;28;20412;-63
2021/08/17 00:30:25;;;;;;;9.53;4.20;;;26.90;99.60;;;;;;5115160;28;20807;-63
2021/08/17 00:32:51;;;;;;;9.83;5.00;;;26.80;99.70;;;;;;5115484;28;20577;-63
2021/08/17 00:35:17;;;;;;;4.90;3.97;;;26.80;99.80;;;;;;5113736;28;20273;-63
2021/08/17 00:37:42;;;;;;;6.17;4.23;;;26.80;99.90;;;;;;5115354;28;20648;-63
2021/08/17 00:40:09;;;;;;;6.97;4.10;;;26.70;99.90;;;;;;5114929;28;20195;-63
2021/08/17 00:42:42;;;;;;;12.57;4.90;;;26.70;99.90;;;;;;5115202;28;20175;-65
2021/08/17 00:45:21;;;;;;;12.03;4.43;;;26.60;99.90;;;;;;5114872;28;20808;-64
2021/08/17 00:47:48;;;;;;;6.17;4.07;;;26.60;99.90;;;;;;5114841;28;20420;-63
2021/08/17 00:50:14;;;;;;;10.90;3.80;;;26.60;99.90;;;;;;5114731;28;20502;-63
2021/08/17 00:52:40;;;;;;;5.37;4.50;;;26.60;99.90;;;;;;5113882;28;21038;-65
2021/08/17 00:55:09;;;;;;;8.30;4.20;;;26.50;99.90;;;;;;5114622;28;20234;-63
2021/08/17 00:57:36;;;;;;;4.83;3.63;;;26.50;99.90;;;;;;5147834;27;20423;-63
2021/08/17 01:00:05;;;;;;;4.60;4.07;;;26.40;99.90;;;;;;5113270;28;20899;-63
2021/08/17 01:02:31;;;;;;;6.73;4.40;;;26.30;99.90;;;;;;5114898;28;20404;-63
2021/08/17 01:04:57;;;;;;;7.23;4.47;;;26.30;99.90;;;;;;5114533;28;20434;-65
2021/08/17 01:07:23;;;;;;;11.23;4.03;;;26.30;99.90;;;;;;5114844;28;20197;-63
2021/08/17 01:09:48;;;;;;;6.23;4.07;;;26.30;99.90;;;;;;5114414;28;20834;-63
2021/08/17 01:12:14;;;;;;;6.60;4.20;;;26.20;99.90;;;;;;5113223;28;20182;-64
2021/08/17 01:14:40;;;;;;;5.20;3.70;;;26.20;99.90;;;;;;5114330;28;20291;-63
2021/08/17 01:17:06;;;;;;;5.80;4.27;;;26.20;99.90;;;;;;5113047;28;20182;-63
2021/08/17 01:19:31;;;;;;;4.80;3.53;;;26.20;99.90;;;;;;5114379;28;20183;-63
2021/08/17 01:21:58;;;;;;;7.03;4.37;;;26.10;99.90;;;;;;5114491;28;20175;-64
2021/08/17 01:24:24;;;;;;;6.73;3.70;;;26.10;99.90;;;;;;5114040;28;20238;-63
2021/08/17 01:26:49;;;;;;;6.40;3.77;;;26.10;99.90;;;;;;5114182;28;20416;-63
2021/08/17 01:29:15;;;;;;;5.90;4.13;;;26.00;99.90;;;;;;5112987;28;20228;-63
2021/08/17 01:31:41;;;;;;;5.40;4.00;;;26.00;99.90;;;;;;5114292;28;20178;-63
2021/08/17 01:34:07;;;;;;;4.10;3.80;;;26.00;99.90;;;;;;5114071;28;20488;-64
2021/08/17 01:36:33;;;;;;;5.07;4.10;;;26.00;99.90;;;;;;5114128;28;20210;-63
2021/08/17 01:38:59;;;;;;;9.40;4.50;;;25.90;99.90;;;;;;5114166;28;20666;-63
2021/08/17 01:41:25;;;;;;;4.60;3.53;;;25.90;99.90;;;;;;5114116;28;20206;-63
2021/08/17 01:43:51;;;;;;;6.77;3.80;;;25.80;99.90;;;;;;5147160;27;20507;-64
2021/08/17 01:46:17;;;;;;;5.53;3.80;;;25.80;99.90;;;;;;5113927;28;20660;-65
2021/08/17 01:48:43;;;;;;;3.83;3.40;;;25.70;99.90;;;;;;5114104;28;20414;-64
2021/08/17 01:51:10;;;;;;;5.20;3.57;;;25.70;99.90;;;;;;5113946;28;20197;-63
2021/08/17 01:53:36;;;;;;;4.97;3.43;;;25.60;99.90;;;;;;5114016;28;20814;-63
2021/08/17 01:56:13;;;;;;;7.43;3.60;;;25.60;99.90;;;;;;5113804;28;20466;-63
2021/08/17 01:58:42;;;;;;;4.50;3.40;;;25.50;99.90;;;;;;5114529;28;20497;-65
2021/08/17 02:01:10;;;;;;;3.60;3.30;;;25.40;99.90;;;;;;5146927;27;20809;-63
2021/08/17 02:03:36;;;;;;;3.73;3.17;;;25.40;99.90;;;;;;5116740;28;20443;-63
2021/08/17 02:06:03;;;;;;;4.83;3.37;;;25.30;99.90;;;;;;5118042;28;20433;-63
2021/08/17 02:08:29;;;;;;;4.47;3.60;;;25.30;99.90;;;;;;5117855;28;20765;-63
2021/08/17 02:10:54;;;;;;;5.33;3.30;;;25.20;99.90;;;;;;5117783;28;20428;-64
2021/08/17 02:13:23;;;;;;;3.57;2.87;;;25.10;99.90;;;;;;5118411;28;20194;-63
2021/08/17 02:15:49;;;;;;;3.40;2.70;;;25.10;99.90;;;;;;5116412;28;20225;-63
2021/08/17 02:18:15;;;;;;;3.77;2.80;;;25.00;99.90;;;;;;5118112;27;20414;-63
2021/08/17 02:20:40;;;;;;;4.83;3.13;;;25.00;99.90;;;;;;5116372;28;20441;-64
2021/08/17 02:23:06;;;;;;;3.33;3.03;;;25.00;99.90;;;;;;5117679;28;20220;-63
2021/08/17 02:25:32;;;;;;;4.43;3.20;;;24.90;99.90;;;;;;5150717;27;20212;-63
2021/08/17 02:27:58;;;;;;;3.40;2.90;;;24.80;99.90;;;;;;5116374;28;20891;-65
2021/08/17 02:30:24;;;;;;;4.10;2.73;;;24.80;99.90;;;;;;5116266;28;20200;-63
2021/08/17 02:32:49;;;;;;;4.37;2.70;;;24.80;99.90;;;;;;5117953;28;20256;-63
2021/08/17 02:35:15;;;;;;;2.40;2.20;;;24.70;99.90;;;;;;5115972;28;20241;-63
2021/08/17 02:37:40;;;;;;;3.90;2.43;;;24.60;99.90;;;;;;5116333;28;20626;-63
2021/08/17 02:40:07;;;;;;;2.30;1.90;;;24.60;99.90;;;;;;5117244;28;20201;-64
2021/08/17 02:42:33;;;;;;;3.90;2.43;;;24.50;99.90;;;;;;5150520;27;20268;-63
2021/08/17 02:44:59;;;;;;;3.60;2.87;;;24.50;99.90;;;;;;5117268;28;20484;-63
2021/08/17 02:47:26;;;;;;;2.77;1.90;;;24.40;99.90;;;;;;5117553;28;20417;-63
2021/08/17 02:49:52;;;;;;;3.40;2.40;;;24.40;99.90;;;;;;5150269;27;20443;-63
2021/08/17 02:52:17;;;;;;;3.50;2.20;;;24.30;99.90;;;;;;5117329;28;20409;-63
2021/08/17 02:54:43;;;;;;;4.70;2.43;;;24.30;99.90;;;;;;5116980;28;20222;-65
2021/08/17 02:57:09;;;;;;;2.30;2.00;;;24.20;99.90;;;;;;5117193;28;20415;-63
2021/08/17 02:59:35;;;;;;;4.03;2.47;;;24.20;99.90;;;;;;5116981;28;20593;-65
2021/08/17 03:02:00;;;;;;;5.40;2.13;;;24.20;99.90;;;;;;5117173;28;20617;-64
2021/08/17 03:04:26;;;;;;;5.57;3.00;;;24.10;99.90;;;;;;5116924;28;20420;-63
2021/08/17 03:06:52;;;;;;;5.63;2.40;;;24.10;99.90;;;;;;5116968;28;20255;-63
2021/08/17 03:09:18;;;;;;;3.20;2.50;;;24.10;99.90;;;;;;5116706;28;20225;-63
2021/08/17 03:11:43;;;;;;;3.83;2.10;;;24.10;99.90;;;;;;5116752;28;20408;-63
2021/08/17 03:14:09;;;;;;;3.07;2.33;;;24.00;99.90;;;;;;5115809;28;20311;-65
2021/08/17 03:16:36;;;;;;;3.13;2.00;;;24.00;99.90;;;;;;5116560;28;20301;-63
2021/08/17 03:19:02;;;;;;;3.20;2.50;;;24.00;99.90;;;;;;5116627;28;20413;-65
2021/08/17 03:21:28;;;;;;;4.30;2.40;;;23.90;99.90;;;;;;5115206;28;20439;-64
2021/08/17 03:23:54;;;;;;;3.53;2.50;;;23.90;99.90;;;;;;5116487;28;20460;-63
2021/08/17 03:26:19;;;;;;;3.83;2.73;;;23.90;99.90;;;;;;5116236;28;20996;-65
2021/08/17 03:28:45;;;;;;;3.23;2.40;;;23.80;99.90;;;;;;5116381;28;20294;-63
2021/08/17 03:31:11;;;;;;;2.90;2.20;;;23.80;99.90;;;;;;5116336;28;20188;-63
2021/08/17 03:33:37;;;;;;;3.20;2.70;;;23.70;99.90;;;;;;5116905;28;20182;-63
2021/08/17 03:36:05;;;;;;;3.03;2.23;;;23.60;99.90;;;;;;5116092;28;20302;-64
2021/08/17 03:38:31;;;;;;;6.83;2.57;;;23.50;99.90;;;;;;5116817;28;20502;-63
2021/08/17 03:40:58;;;;;;;4.80;3.07;;;23.50;99.90;;;;;;5149291;27;20436;-63
2021/08/17 03:43:25;;;;;;;4.73;3.00;;;23.40;99.90;;;;;;5116851;28;20423;-63
2021/08/17 03:45:51;;;;;;;4.10;2.83;;;23.40;99.90;;;;;;5149177;27;20447;-63
2021/08/17 03:48:17;;;;;;;6.30;2.93;;;23.30;99.90;;;;;;5116418;28;20439;-63
2021/08/17 03:50:42;;;;;;;5.77;3.10;;;23.30;99.90;;;;;;5116029;28;20836;-64
2021/08/17 03:53:08;;;;;;;5.67;3.40;;;23.40;99.90;;;;;;5115892;28;20172;-62
2021/08/17 03:55:35;;;;;;;3.57;2.80;;;23.60;99.90;;;;;;5115791;28;20262;-63
2021/08/17 03:58:00;;;;;;;7.30;4.97;;;23.60;99.90;;;;;;5114694;28;20279;-64
2021/08/17 04:00:28;;;;;;;7.17;4.57;;;23.60;99.90;;;;;;5115721;28;20508;-62
2021/08/17 04:02:55;;;;;;;5.27;3.63;;;23.70;99.90;;;;;;5116184;28;20169;-63
2021/08/17 04:05:21;;;;;;;4.63;3.17;;;23.70;99.90;;;;;;5115691;28;20820;-63
2021/08/17 04:07:47;;;;;;;5.43;3.67;;;23.70;99.90;;;;;;5115695;28;20797;-63
2021/08/17 04:10:13;;;;;;;4.77;3.10;;;23.80;99.90;;;;;;5114250;28;20425;-63
2021/08/17 04:12:39;;;;;;;4.60;3.00;;;23.80;99.90;;;;;;5115676;28;20417;-63
2021/08/17 04:15:06;;;;;;;4.33;3.10;;;23.80;99.90;;;;;;5115306;28;20716;-63
2021/08/17 04:17:32;;;;;;;3.83;3.27;;;23.90;99.90;;;;;;5148651;27;20454;-63
2021/08/17 04:19:58;;;;;;;5.40;3.40;;;23.90;99.90;;;;;;5148402;27;20453;-63
2021/08/17 04:22:24;;;;;;;5.60;3.00;;;23.90;99.90;;;;;;5115331;28;20706;-63
2021/08/17 04:24:49;;;;;;;5.90;3.47;;;23.90;99.90;;;;;;5148444;27;20192;-63
2021/08/17 04:27:16;;;;;;;4.40;3.63;;;24.00;99.90;;;;;;5113572;28;20185;-63
2021/08/17 04:29:43;;;;;;;4.87;3.10;;;24.00;99.90;;;;;;5102187;28;20846;-63
2021/08/17 04:32:09;;;;;;;6.50;4.03;;;24.10;99.90;;;;;;5106374;28;20440;-63
2021/08/17 04:34:35;;;;;;;5.30;3.43;;;24.10;99.90;;;;;;5107239;28;20567;-65
2021/08/17 04:37:00;;;;;;;6.83;3.40;;;24.10;99.90;;;;;;5134237;27;20186;-63
2021/08/17 04:39:26;;;;;;;5.60;3.57;;;24.10;99.90;;;;;;5103915;28;20188;-65
2021/08/17 04:41:52;;;;;;;4.40;3.50;;;24.10;99.90;;;;;;5098616;28;20184;-63
2021/08/17 04:44:17;;;;;;;6.43;3.77;;;24.10;99.90;;;;;;5105025;28;20781;-63
2021/08/17 04:46:43;;;;;;;6.00;3.50;;;24.10;99.90;;;;;;5097445;28;20265;-63
2021/08/17 04:49:08;;;;;;;8.50;3.93;;;24.20;99.90;;;;;;5105676;28;20189;-64
2021/08/17 04:51:35;;;;;;;5.80;3.90;;;24.20;99.90;;;;;;5097994;28;20206;-63
2021/08/17 04:54:00;;;;;;;6.97;4.80;;;24.20;99.90;;;;;;5111603;28;20178;-64
2021/08/17 04:56:26;;;;;;;6.20;4.40;;;24.10;99.90;;;;;;5110356;28;20453;-63
2021/08/17 04:58:52;;;;;;;6.60;3.70;;;24.20;99.90;;;;;;5136639;27;20185;-63
2021/08/17 05:01:18;;;;;;;5.40;4.20;;;24.20;99.90;;;;;;5098942;27;20197;-64
2021/08/17 05:03:44;;;;;;;4.97;3.83;;;24.20;99.90;;;;;;5107370;28;20429;-63
2021/08/17 05:06:09;;;;;;;9.80;4.27;;;24.20;99.90;;;;;;5107614;28;20194;-63
2021/08/17 05:08:35;;;;;;;5.80;4.13;;;24.30;99.90;;;;;;5105974;28;20564;-63
2021/08/17 05:11:00;;;;;;;4.43;3.63;;;24.30;99.90;;;;;;5100638;28;20265;-63
2021/08/17 05:13:26;;;;;;;6.80;4.33;;;24.30;99.90;;;;;;5102981;28;20182;-64
2021/08/17 05:15:52;;;;;;;5.87;3.90;;;24.30;99.90;;;;;;5102302;28;20219;-63
2021/08/17 05:18:17;;;;;;;10.20;3.90;;;24.30;99.90;;;;;;5104095;28;20177;-63
2021/08/17 05:20:43;;;;;;;6.27;3.90;;;24.30;99.90;;;;;;5102775;28;20211;-63
2021/08/17 05:23:08;;;;;;;8.93;4.13;;;24.30;99.90;;;;;;5103628;28;20631;-63
2021/08/17 05:25:34;;;;;;;5.70;3.30;;;24.30;99.90;;;;;;5101225;28;20201;-63
2021/08/17 05:28:01;;;;;;;7.80;3.80;;;24.30;99.90;;;;;;5112586;28;20182;-63
2021/08/17 05:30:26;;;;;;;6.23;3.73;;;24.30;99.90;;;;;;5101945;28;20209;-64
2021/08/17 05:32:52;;;;;;;5.63;3.90;;;24.30;99.90;;;;;;5101220;28;20927;-63
2021/08/17 05:35:18;;;;;;;8.17;4.00;;;24.30;99.90;;;;;;5104509;28;20691;-63
2021/08/17 05:37:44;;;;;;;6.60;3.90;;;24.40;99.90;;;;;;5108325;28;20186;-65
2021/08/17 05:40:10;;;;;;;4.30;3.47;;;24.40;99.90;;;;;;5111029;28;20957;-63
2021/08/17 05:42:36;;;;;;;4.63;3.33;;;24.40;99.90;;;;;;5105589;28;20586;-63
2021/08/17 05:45:02;;;;;;;4.80;3.70;;;24.50;99.90;;;;;;5106095;28;20789;-63
2021/08/17 05:47:28;;;;;;;6.17;4.30;;;24.50;99.90;;;;;;5098662;28;20422;-64
2021/08/17 05:49:54;;;;;;;5.47;3.60;;;24.60;99.90;;;;;;5102880;28;20452;-63
2021/08/17 05:52:19;;;;;;;5.07;3.50;;;24.50;99.90;;;;;;5107302;28;20618;-63
2021/08/17 05:54:45;;;;;;;3.87;3.47;;;24.50;99.90;;;;;;5100560;28;20651;-65
2021/08/17 05:57:10;;;;;;;9.10;4.10;;;24.40;99.90;;;;;;5103700;28;20177;-64
2021/08/17 05:59:36;;;;;;;5.27;3.37;;;24.40;99.90;;;;;;5108020;28;20621;-63
2021/08/17 06:02:03;;;;;;;7.30;3.37;;;24.40;99.90;;;;;;5098129;28;20180;-65
2021/08/17 06:04:29;;;;;;;8.80;3.87;;;24.50;99.90;;;;;;5097364;28;20267;-62
2021/08/17 06:06:55;;;;;;;6.20;4.07;;;24.50;99.90;;;;;;5102591;28;20538;-65
2021/08/17 06:09:22;;;;;;;5.13;3.17;;;24.50;99.90;;;;;;5097850;28;20190;-63
2021/08/17 06:11:54;;;;;;;8.03;4.20;;;24.50;99.90;;;;;;5105143;28;20200;-63
2021/08/17 06:14:20;;;;;;;5.63;3.60;;;24.50;99.90;;;;;;5103928;28;20468;-63
2021/08/17 06:16:45;;;;;;;4.77;3.43;;;24.50;99.90;;;;;;5096387;28;20434;-63
2021/08/17 06:19:12;;;;;;;5.83;3.33;;;24.40;99.90;;;;;;5111954;28;20263;-63
2021/08/17 06:21:38;;;;;;;7.80;3.80;;;24.40;99.90;;;;;;5109333;28;20204;-64
2021/08/17 06:24:05;;;;;;;4.57;3.60;;;24.40;99.90;;;;;;5108682;28;20974;-63
2021/08/17 06:26:31;;;;;;;8.60;3.60;;;24.40;99.90;;;;;;5101521;28;21053;-63
2021/08/17 06:28:57;;;;;;;6.17;3.70;;;24.50;99.90;;;;;;5107643;28;20515;-63
2021/08/17 06:31:23;;;;;;;6.83;3.30;;;24.50;99.90;;;;;;5101132;28;20442;-64
2021/08/17 06:33:50;;;;;;;7.27;3.70;;;24.50;99.90;;;;;;5095685;28;20190;-64
2021/08/17 06:36:17;;;;;;;4.80;3.50;;;24.60;99.90;;;;;;5103740;28;20841;-64
2021/08/17 06:38:42;;;;;;;4.00;3.27;;;24.60;99.90;;;;;;5104031;28;20430;-63
2021/08/17 06:41:08;;;;;;;6.00;3.70;;;24.70;99.90;;;;;;5103414;28;20811;-63
2021/08/17 06:43:34;;;;;;;6.90;3.67;;;24.60;99.90;;;;;;5103157;28;20191;-63
2021/08/17 06:46:00;;;;;;;6.80;3.33;;;24.70;99.90;;;;;;5096226;28;20446;-63
2021/08/17 06:48:26;;;;;;;4.53;3.10;;;24.70;99.90;;;;;;5098994;28;20931;-63
2021/08/17 06:50:51;;;;;;;5.77;3.33;;;24.80;99.90;;;;;;5102917;28;20210;-63
2021/08/17 06:53:17;;;;;;;4.03;3.30;;;24.80;99.90;;;;;;5105573;28;20202;-63
2021/08/17 06:55:43;;;;;;;4.63;3.13;;;24.90;99.90;;;;;;5105291;28;20231;-63
2021/08/17 06:58:13;;;;;;;10.23;3.53;;;24.90;99.90;;;;;;5108187;28;20208;-63
2021/08/17 07:00:42;;;;;;;11.40;3.97;;;25.00;99.90;;;;;;5136991;27;20577;-63
2021/08/17 07:03:08;;;;;;;7.47;3.23;;;25.10;99.90;;;;;;5099659;28;20426;-64
2021/08/17 07:05:35;;;;;;;4.43;3.37;;;25.10;99.90;;;;;;5101908;28;20455;-64
2021/08/17 07:08:01;;;;;;;10.63;4.00;;;25.10;99.90;;;;;;5099349;28;20182;-66
2021/08/17 07:10:27;;;;;;;8.13;3.10;;;25.10;99.90;;;;;;5104043;28;20465;-65
2021/08/17 07:12:52;;;;;;;4.03;3.00;;;25.10;99.90;;;;;;5099871;28;20546;-63
2021/08/17 07:15:18;;;;;;;6.23;3.37;;;25.10;99.90;;;;;;5136960;27;20224;-66
2021/08/17 07:17:44;;;;;;;4.53;3.67;;;25.20;99.90;;;;;;5099134;28;20194;-63
2021/08/17 07:20:10;;;;;;;6.10;3.50;;;25.20;99.90;;;;;;5102476;28;20691;-64
2021/08/17 07:22:35;;;;;;;6.83;3.57;;;25.20;99.90;;;;;;5109016;28;20233;-62
2021/08/17 07:25:02;;;;;;;5.53;3.53;;;25.20;99.90;;;;;;5102140;28;20451;-65
2021/08/17 07:27:27;;;;;;;5.27;3.80;;;25.20;99.90;;;;;;5100843;28;20179;-63
2021/08/17 07:29:53;;;;;;;4.77;3.03;;;25.30;99.90;;;;;;5108252;28;20443;-64
2021/08/17 07:32:18;;;;;;;4.33;3.93;;;25.30;99.90;;;;;;5101814;28;20182;-65
2021/08/17 07:34:44;;;;;;;4.67;3.37;;;25.20;99.90;;;;;;5103871;28;20260;-64
2021/08/17 07:37:12;;;;;;;3.70;2.80;;;25.20;99.90;;;;;;5110823;28;20218;-64
2021/08/17 07:39:38;;;;;;;3.73;3.30;;;25.30;99.90;;;;;;5107771;28;20217;-67
2021/08/17 07:42:04;;;;;;;7.53;3.83;;;25.30;99.90;;;;;;5109292;28;20434;-66
2021/08/17 07:44:30;;;;;;;3.90;3.20;;;25.30;99.90;;;;;;5098421;28;20309;-66
2021/08/17 07:46:56;;;;;;;4.87;3.70;;;25.40;99.90;;;;;;5105783;28;20178;-65
2021/08/17 07:49:22;;;;;;;4.93;3.27;;;25.50;99.90;;;;;;5095817;28;20436;-67
2021/08/17 07:51:47;;;;;;;3.47;2.60;;;25.50;99.90;;;;;;5102755;27;20446;-67
2021/08/17 07:54:13;;;;;;;6.50;3.60;;;25.60;99.90;;;;;;5101868;28;20520;-65
2021/08/17 07:56:39;;;;;;;5.87;3.20;;;25.70;99.90;;;;;;5109288;27;20198;-67
2021/08/17 07:59:04;;;;;;;6.00;3.17;;;25.80;99.90;;;;;;5101599;28;20190;-68
2021/08/17 08:01:30;;;;;;;4.03;3.10;;;25.80;99.90;;;;;;5103384;28;20207;-66
2021/08/17 08:03:57;;;;;;;5.03;3.03;;;25.90;99.90;;;;;;5101665;28;20600;-67
2021/08/17 08:06:23;;;;;;;60.90;43.17;;;25.90;99.90;;;;;;5107451;28;20301;-65
2021/08/17 08:08:49;;;;;;;6.53;3.30;;;25.90;99.90;;;;;;5109440;28;20955;-67
2021/08/17 08:11:15;;;;;;;6.17;3.20;;;25.90;99.90;;;;;;5110155;28;20226;-68
2021/08/17 08:13:41;;;;;;;4.50;3.73;;;26.00;99.90;;;;;;5101439;28;20182;-66
2021/08/17 08:16:06;;;;;;;5.20;2.70;;;26.00;99.90;;;;;;5105054;28;20478;-68
2021/08/17 08:18:32;;;;;;;5.27;3.17;;;26.00;99.90;;;;;;5100238;28;20345;-68
2021/08/17 08:20:58;;;;;;;6.03;3.23;;;26.00;99.90;;;;;;5102475;28;20312;-68
2021/08/17 08:23:23;;;;;;;4.60;3.10;;;26.00;99.90;;;;;;5107014;28;20711;-66
2021/08/17 08:25:49;;;;;;;5.73;3.30;;;26.10;99.90;;;;;;5097363;28;20217;-66
2021/08/17 08:28:15;;;;;;;5.53;3.17;;;26.00;99.90;;;;;;5097040;28;20214;-67
2021/08/17 08:30:40;;;;;;;4.43;3.03;;;26.00;99.90;;;;;;5095999;28;20218;-66
2021/08/17 08:33:06;;;;;;;4.73;3.00;;;26.00;99.90;;;;;;5105163;28;20207;-67
2021/08/17 08:35:32;;;;;;;5.80;3.43;;;26.00;99.90;;;;;;5128751;27;20768;-65
2021/08/17 08:37:57;;;;;;;4.17;3.00;;;26.00;99.90;;;;;;5133453;27;20179;-66
2021/08/17 08:40:27;;;;;;;5.37;3.40;;;26.00;99.90;;;;;;5100090;28;20703;-67
2021/08/17 08:42:53;;;;;;;7.17;3.30;;;26.00;99.90;;;;;;5096791;28;20239;-68
2021/08/17 08:45:19;;;;;;;6.07;3.43;;;25.90;99.90;;;;;;5097606;28;20456;-67
2021/08/17 08:47:45;;;;;;;4.73;3.70;;;25.90;99.90;;;;;;5102281;28;20431;-67
2021/08/17 08:50:12;;;;;;;5.10;2.90;;;25.80;99.90;;;;;;5094605;28;20538;-65
2021/08/17 08:52:38;;;;;;;4.07;2.87;;;25.80;99.90;;;;;;5101658;28;20435;-66
2021/08/17 08:55:05;;;;;;;7.10;3.60;;;25.70;99.90;;;;;;5101197;28;20528;-66
2021/08/17 08:57:31;;;;;;;4.70;3.17;;;25.70;99.90;;;;;;5105718;28;20502;-67
2021/08/17 08:59:57;;;;;;;4.03;3.00;;;25.60;99.90;;;;;;5104862;28;20450;-66
2021/08/17 09:02:29;;;;;;;6.43;3.80;;;25.50;99.90;;;;;;5099277;28;20274;-65
2021/08/17 09:04:57;;;;;;;5.57;3.23;;;25.30;99.90;;;;;;5100674;28;20333;-65
2021/08/17 09:07:42;;;;;;;4.60;3.40;;;25.20;99.90;;;;;;5103356;28;20449;-65
2021/08/17 09:10:11;;;;;;;3.33;2.80;;;25.10;99.90;;;;;;5098926;28;21054;-65
2021/08/17 09:12:40;;;;;;;4.80;4.30;;;25.00;99.90;;;;;;5102905;28;20442;-67
2021/08/17 09:15:12;;;;;;;3.33;2.90;;;25.00;99.90;;;;;;5105548;28;20567;-67
2021/08/17 09:17:40;;;;;;;3.37;2.57;;;25.00;99.90;;;;;;5102171;28;20436;-66
2021/08/17 09:20:07;;;;;;;2.87;2.20;;;24.90;99.90;;;;;;5101931;28;20460;-68
2021/08/17 09:22:33;;;;;;;2.40;2.17;;;24.90;99.90;;;;;;5098120;28;20496;-66
2021/08/17 09:25:01;;;;;;;8.03;3.10;;;25.00;99.90;;;;;;5095924;28;20478;-65
2021/08/17 09:27:33;;;;;;;4.87;2.43;;;24.90;99.90;;;;;;5097748;28;20845;-68
2021/08/17 09:30:05;;;;;;;4.17;2.90;;;24.80;99.90;;;;;;5106681;28;20494;-66
2021/08/17 09:32:31;;;;;;;3.77;3.10;;;24.80;99.90;;;;;;5104086;28;20442;-66
2021/08/17 09:35:00;;;;;;;4.97;3.00;;;24.70;99.90;;;;;;5098330;28;20993;-66
2021/08/17 09:37:31;;;;;;;4.83;3.30;;;24.70;99.90;;;;;;5101959;28;20314;-68
2021/08/17 09:39:58;;;;;;;5.93;3.13;;;24.70;99.90;;;;;;5106266;28;20904;-65
2021/08/17 09:42:32;;;;;;;3.93;3.40;;;24.60;99.90;;;;;;5109093;28;20435;-66
2021/08/17 09:45:09;;;;;;;4.70;3.50;;;24.50;99.90;;;;;;5098846;28;22200;-67
2021/08/17 09:47:36;;;;;;;4.70;3.73;;;24.40;99.90;;;;;;5105733;28;20482;-66
2021/08/17 09:50:42;;;;;;;5.60;3.87;;;24.40;99.90;;;;;;5105390;28;20523;-65
2021/08/17 09:53:17;;;;;;;3.80;2.80;;;24.30;99.90;;;;;;5065931;28;20435;-66
2021/08/17 09:55:52;;;;;;;5.00;4.00;;;24.10;99.90;;;;;;5067003;28;20482;-64
2021/08/17 09:58:23;;;;;;;6.57;3.60;;;24.00;99.90;;;;;;5072827;28;20998;-65
2021/08/17 10:00:50;;;;;;;6.40;4.33;;;24.00;99.90;;;;;;5108012;28;20436;-65
2021/08/17 10:03:17;;;;;;;5.67;3.50;;;23.90;99.90;;;;;;5099821;28;20432;-66
2021/08/17 10:05:43;;;;;;;3.90;3.27;;;23.80;99.90;;;;;;5101183;28;20787;-67
2021/08/17 10:08:16;;;;;;;3.93;3.53;;;23.70;99.90;;;;;;5104566;28;20821;-66
2021/08/17 10:10:43;;;;;;;3.63;3.10;;;23.60;99.90;;;;;;5137906;27;21007;-65
2021/08/17 10:13:13;;;;;;;4.00;3.07;;;23.50;99.90;;;;;;5129367;27;20432;-64
2021/08/17 10:15:40;;;;;;;5.20;3.50;;;23.40;99.90;;;;;;5094939;28;20521;-66
2021/08/17 10:18:08;;;;;;;3.70;3.40;;;23.40;99.90;;;;;;5099231;28;21184;-66
2021/08/17 10:20:34;;;;;;;4.30;3.90;;;23.30;99.90;;;;;;5109513;28;20416;-66
2021/08/17 10:23:00;;;;;;;4.90;3.60;;;23.20;99.90;;;;;;5097552;28;20491;-65
2021/08/17 10:25:26;;;;;;;4.50;3.07;;;23.20;99.90;;;;;;5134730;27;20454;-64
2021/08/17 10:27:52;;;;;;;4.03;3.63;;;23.10;99.90;;;;;;5100781;28;20424;-65
2021/08/17 10:30:21;;;;;;;3.43;3.13;;;23.10;99.90;;;;;;5097837;28;20734;-64
2021/08/17 10:32:51;;;;;;;6.37;3.77;;;23.10;99.90;;;;;;5101257;28;20191;-65
2021/08/17 10:35:26;;;;;;;3.90;3.50;;;23.10;99.90;;;;;;5103219;27;20620;-65
2021/08/17 10:38:14;;;;;;;5.17;3.50;;;23.10;99.90;;;;;;5105492;28;20462;-65
2021/08/17 10:40:51;;;;;;;3.40;3.10;;;23.00;99.90;;;;;;5137761;27;21047;-67
2021/08/17 10:43:18;;;;;;;3.10;2.90;;;23.00;99.90;;;;;;5111158;28;20444;-67
2021/08/17 10:46:12;;;;;;;6.53;2.80;;;23.10;99.90;;;;;;5137084;27;20449;-66
2021/08/17 10:48:48;;;;;;;4.00;3.67;;;23.20;99.90;;;;;;5103496;27;20489;-65
2021/08/17 10:51:22;;;;;;;3.37;3.07;;;23.30;99.90;;;;;;5108474;28;20476;-65
2021/08/17 10:53:52;;;;;;;4.43;3.33;;;23.30;99.90;;;;;;5103726;28;20419;-65
2021/08/17 10:56:22;;;;;;;4.63;3.30;;;23.30;99.90;;;;;;5103456;28;20471;-67
2021/08/17 10:58:53;;;;;;;6.00;3.10;;;23.30;99.90;;;;;;5100138;28;20548;-66
2021/08/17 11:01:30;;;;;;;3.20;2.70;;;23.40;99.90;;;;;;5127260;27;20455;-66
2021/08/17 11:03:57;;;;;;;4.20;2.63;;;23.30;99.90;;;;;;5100140;28;20956;-66
2021/08/17 11:06:44;;;;;;;3.60;2.63;;;23.30;99.90;;;;;;5105114;28;20457;-67
2021/08/17 11:09:12;;;;;;;3.20;2.53;;;23.40;99.90;;;;;;5099254;28;20441;-67
2021/08/17 11:11:40;;;;;;;5.03;3.00;;;23.40;99.90;;;;;;5099253;28;20444;-65
2021/08/17 11:14:13;;;;;;;4.40;2.80;;;23.40;99.90;;;;;;5101022;28;20428;-66
2021/08/17 11:16:44;;;;;;;2.97;2.67;;;23.40;99.90;;;;;;5108435;28;20459;-66
2021/08/17 11:19:11;;;;;;;2.63;2.20;;;23.30;99.90;;;;;;5103060;28;20481;-64
2021/08/17 11:21:52;;;;;;;3.37;2.67;;;23.30;99.90;;;;;;5103734;28;20502;-65
2021/08/17 11:24:34;;;;;;;2.67;2.10;;;23.30;99.90;;;;;;5106582;28;20463;-67
2021/08/17 11:27:15;;;;;;;2.60;2.40;;;23.30;99.90;;;;;;5099765;28;20793;-65
2021/08/17 11:29:52;;;;;;;2.73;2.53;;;23.30;99.90;;;;;;5098215;28;20522;-65
2021/08/17 11:32:31;;;;;;;6.53;2.73;;;23.30;99.90;;;;;;5111685;28;20468;-65
2021/08/17 11:35:02;;;;;;;2.33;2.13;;;23.30;99.90;;;;;;5103763;28;20512;-65
2021/08/17 11:37:29;;;;;;;1.90;1.73;;;23.30;99.90;;;;;;5095474;28;20424;-65
2021/08/17 11:39:57;;;;;;;3.33;1.70;;;23.30;99.90;;;;;;5095736;28;20449;-66
2021/08/17 11:42:31;;;;;;;4.33;1.83;;;23.30;99.90;;;;;;5101883;28;20538;-65
2021/08/17 11:45:00;;;;;;;2.07;1.53;;;23.40;99.90;;;;;;5096064;28;20870;-65
2021/08/17 11:47:28;;;;;;;2.50;1.40;;;23.40;99.90;;;;;;5106242;28;20822;-65
2021/08/17 11:49:59;;;;;;;6.47;1.50;;;23.40;99.90;;;;;;5133927;27;20465;-66
2021/08/17 11:52:27;;;;;;;6.03;1.33;;;23.40;99.90;;;;;;5106079;28;20420;-65
2021/08/17 11:55:23;;;;;;;1.77;1.30;;;23.30;99.90;;;;;;5104934;28;20479;-65
2021/08/17 11:57:51;;;;;;;2.07;1.80;;;23.40;99.90;;;;;;5092059;28;20424;-65
2021/08/17 12:00:25;;;;;;;3.33;1.27;;;23.30;99.90;;;;;;5102398;28;20508;-66
2021/08/17 12:02:57;;;;;;;2.13;1.20;;;23.40;99.90;;;;;;5129735;27;20468;-65
2021/08/17 12:05:25;;;;;;;4.50;1.60;;;23.40;99.90;;;;;;5094128;28;20445;-64
2021/08/17 12:07:54;;;;;;;1.83;1.37;;;23.40;99.90;;;;;;5141903;27;20786;-66
2021/08/17 12:10:20;;;;;;;3.10;1.50;;;23.40;99.90;;;;;;5134006;27;20775;-65
2021/08/17 12:13:09;;;;;;;1.43;1.10;;;23.40;99.90;;;;;;5105651;28;20460;-65
2021/08/17 12:15:47;;;;;;;1.10;1.00;;;23.40;99.90;;;;;;5098186;28;20476;-65
2021/08/17 12:18:13;;;;;;;1.87;1.43;;;23.40;99.90;;;;;;5109005;28;20424;-65
2021/08/17 12:20:53;;;;;;;4.23;1.10;;;23.40;99.90;;;;;;5100003;28;20452;-66
2021/08/17 12:23:23;;;;;;;3.43;1.40;;;23.30;99.90;;;;;;5100617;28;20545;-65
2021/08/17 12:25:51;;;;;;;1.70;1.17;;;23.30;99.90;;;;;;5110741;28;20535;-64
2021/08/17 12:28:32;;;;;;;5.43;1.60;;;23.40;99.90;;;;;;5108837;28;20961;-65
2021/08/17 12:31:19;;;;;;;3.03;1.60;;;23.40;99.90;;;;;;5102017;28;20971;-65
2021/08/17 12:33:54;;;;;;;2.33;1.50;;;23.40;99.90;;;;;;5138028;27;21011;-65
2021/08/17 12:36:45;;;;;;;2.80;1.10;;;23.40;99.90;;;;;;5112383;28;20556;-64
2021/08/17 12:39:25;;;;;;;2.87;1.60;;;23.40;99.90;;;;;;5114179;28;20394;-64
2021/08/17 12:41:50;;;;;;;2.93;1.57;;;23.40;99.90;;;;;;5129499;27;20448;-65
2021/08/17 12:44:22;;;;;;;2.57;1.30;;;23.30;99.90;;;;;;5093201;28;20414;-65
2021/08/17 12:47:02;;;;;;;3.50;1.50;;;23.20;99.90;;;;;;5093937;28;20645;-64
2021/08/17 12:49:39;;;;;;;5.10;1.77;;;23.20;99.90;;;;;;5098340;28;20420;-64